Time;durP1;ratioP1;P1;durP2;ratioP2;P2;SDS_P1;SDS_P2;PMS_P1;PMS_P2;Temp;Humidity;BMP_temperature;BMP_pressure;BME280_temperature;BME280_humidity;BME280_pressure;Samples;Min_cycle;Max_cycle;Signal;HPM_P1;HPM_P2
2022/10/04 00:01:02;;;;;;;11.68;3.50;;;11.50;99.90;;;;;;5132902;27;20163;-55
2022/10/04 00:03:36;;;;;;;6.57;3.42;;;11.50;99.90;;;;;;5133075;27;20215;-55
2022/10/04 00:06:03;;;;;;;4.50;2.88;;;11.50;99.90;;;;;;5132509;27;20176;-56
2022/10/04 00:08:52;;;;;;;8.52;4.88;;;11.40;99.90;;;;;;5132841;27;20161;-55
2022/10/04 00:11:25;;;;;;;17.80;8.02;;;11.40;99.90;;;;;;5132900;27;20156;-54
2022/10/04 00:13:59;;;;;;;39.88;13.50;;;11.50;99.90;;;;;;5131943;28;20168;-57
2022/10/04 00:16:30;;;;;;;45.95;16.00;;;11.40;99.90;;;;;;5133046;27;20167;-58
2022/10/04 00:19:25;;;;;;;33.33;12.25;;;11.40;99.90;;;;;;5133032;27;20267;-58
2022/10/04 00:21:51;;;;;;;21.23;9.25;;;11.30;99.90;;;;;;5132631;27;20278;-57
2022/10/04 00:24:21;;;;;;;58.80;20.73;;;11.30;99.90;;;;;;5132748;27;20251;-56
2022/10/04 00:26:47;;;;;;;15.07;6.80;;;11.30;99.90;;;;;;5132694;27;20216;-57
2022/10/04 00:29:33;;;;;;;50.03;17.33;;;11.40;99.90;;;;;;5133024;27;20167;-56
2022/10/04 00:32:10;;;;;;;35.08;12.85;;;11.30;99.90;;;;;;5131285;27;20199;-56
2022/10/04 00:34:50;;;;;;;6.22;3.88;;;11.30;99.90;;;;;;5132593;27;20160;-57
2022/10/04 00:37:17;;;;;;;4.25;3.00;;;11.30;99.90;;;;;;5132670;27;20167;-57
2022/10/04 00:39:46;;;;;;;6.53;3.65;;;11.30;99.90;;;;;;5132871;27;20513;-57
2022/10/04 00:42:47;;;;;;;4.25;3.53;;;11.20;99.90;;;;;;5132940;27;20206;-57
2022/10/04 00:45:35;;;;;;;7.20;4.22;;;11.20;99.90;;;;;;5089829;28;20666;-55
2022/10/04 00:48:10;;;;;;;13.88;6.15;;;11.10;99.90;;;;;;5130327;27;20252;-57
2022/10/04 00:50:38;;;;;;;17.98;8.15;;;11.20;99.90;;;;;;5132478;27;20168;-57
2022/10/04 00:53:13;;;;;;;13.45;8.25;;;11.10;99.90;;;;;;5132698;27;20633;-56
2022/10/04 00:55:48;;;;;;;9.02;4.50;;;11.10;99.90;;;;;;5130968;27;20222;-57
2022/10/04 00:58:19;;;;;;;7.90;4.13;;;11.10;99.90;;;;;;5132946;27;20524;-57
2022/10/04 01:00:47;;;;;;;7.63;3.95;;;11.10;99.90;;;;;;5133047;27;20619;-57
2022/10/04 01:03:29;;;;;;;6.55;4.20;;;11.10;99.90;;;;;;5132818;27;20203;-55
2022/10/04 01:06:00;;;;;;;7.82;4.55;;;11.10;99.90;;;;;;5132496;27;20704;-56
2022/10/04 01:08:32;;;;;;;8.45;4.20;;;11.10;99.90;;;;;;5132601;27;20170;-57
2022/10/04 01:11:02;;;;;;;6.60;4.10;;;11.10;99.90;;;;;;5134867;27;20544;-55
2022/10/04 01:13:36;;;;;;;6.32;3.90;;;11.10;99.90;;;;;;5136311;27;20170;-58
2022/10/04 01:16:18;;;;;;;8.45;4.03;;;11.10;99.90;;;;;;5134739;27;20635;-58
2022/10/04 01:18:44;;;;;;;7.40;3.95;;;11.20;99.90;;;;;;5136635;27;20225;-55
2022/10/04 01:21:19;;;;;;;8.48;4.38;;;11.10;99.90;;;;;;5135804;27;20179;-56
2022/10/04 01:23:57;;;;;;;8.70;4.30;;;11.10;99.90;;;;;;5136419;27;20671;-55
2022/10/04 01:26:25;;;;;;;5.53;3.72;;;11.20;99.90;;;;;;5135778;27;20333;-55
2022/10/04 01:29:04;;;;;;;8.88;5.32;;;11.20;99.90;;;;;;5135955;27;20172;-56
2022/10/04 01:31:33;;;;;;;8.70;4.60;;;11.20;99.90;;;;;;5135889;27;20166;-55
2022/10/04 01:34:00;;;;;;;7.85;4.60;;;11.30;99.90;;;;;;5135292;27;20697;-55
2022/10/04 01:36:26;;;;;;;4.50;3.65;;;11.20;99.90;;;;;;5135640;27;20221;-55
2022/10/04 01:38:52;;;;;;;8.00;4.18;;;11.30;99.90;;;;;;5135548;27;20243;-54
2022/10/04 01:41:24;;;;;;;6.82;3.92;;;11.20;99.90;;;;;;5135605;27;20199;-55
2022/10/04 01:43:53;;;;;;;5.72;3.85;;;11.20;99.90;;;;;;5135529;27;20192;-55
2022/10/04 01:46:24;;;;;;;5.88;3.90;;;11.20;99.90;;;;;;5135430;27;20636;-57
2022/10/04 01:48:51;;;;;;;6.85;4.68;;;11.20;99.90;;;;;;5135378;27;20172;-56
2022/10/04 01:51:28;;;;;;;6.80;4.50;;;11.20;99.90;;;;;;5135402;27;20160;-55
2022/10/04 01:53:58;;;;;;;6.47;4.68;;;11.30;99.90;;;;;;5135573;27;20160;-56
2022/10/04 01:56:37;;;;;;;7.30;4.80;;;11.20;99.90;;;;;;5135112;27;20579;-56
2022/10/04 01:59:06;;;;;;;7.85;4.25;;;11.20;99.90;;;;;;5135190;27;20643;-57
2022/10/04 02:01:49;;;;;;;8.57;4.30;;;11.20;99.90;;;;;;5135041;27;20248;-54
2022/10/04 02:04:19;;;;;;;9.90;4.28;;;11.20;99.90;;;;;;5135475;27;20168;-56
2022/10/04 02:06:47;;;;;;;7.85;4.43;;;11.20;99.90;;;;;;5135425;27;20243;-56
2022/10/04 02:09:21;;;;;;;10.00;4.00;;;11.20;99.90;;;;;;5135380;27;20164;-55
2022/10/04 02:11:52;;;;;;;7.60;4.63;;;11.20;99.90;;;;;;5135060;27;20168;-57
2022/10/04 02:14:23;;;;;;;5.82;3.95;;;11.10;99.90;;;;;;5135048;27;20164;-57
2022/10/04 02:16:52;;;;;;;7.43;3.55;;;11.10;99.90;;;;;;5134927;27;20244;-56
2022/10/04 02:19:24;;;;;;;7.35;4.22;;;11.10;99.90;;;;;;5135077;27;20175;-57
2022/10/04 02:21:50;;;;;;;5.68;3.78;;;11.00;99.90;;;;;;5134115;27;20272;-56
2022/10/04 02:24:16;;;;;;;5.50;3.83;;;11.00;99.90;;;;;;5134706;27;20229;-56
2022/10/04 02:26:47;;;;;;;10.85;5.25;;;11.00;99.90;;;;;;5135211;27;20190;-57
2022/10/04 02:29:13;;;;;;;7.55;4.25;;;11.00;99.90;;;;;;5135006;27;20160;-58
2022/10/04 02:34:23;;;;;;;6.30;4.40;;;11.00;99.90;;;;;;5134581;27;20178;-57
2022/10/04 02:36:50;;;;;;;7.15;4.50;;;11.00;99.90;;;;;;5134433;27;20168;-57
2022/10/04 02:39:29;;;;;;;10.27;4.03;;;11.00;99.90;;;;;;5134484;27;20563;-57
2022/10/04 02:42:02;;;;;;;8.02;4.28;;;10.90;99.90;;;;;;5134308;27;20237;-58
2022/10/04 02:44:47;;;;;;;6.80;4.82;;;10.90;99.90;;;;;;5134287;27;20221;-56
2022/10/04 02:47:22;;;;;;;5.97;4.13;;;10.90;99.90;;;;;;5134690;27;20168;-57
2022/10/04 02:49:53;;;;;;;10.73;5.43;;;10.90;99.90;;;;;;5134422;27;20168;-57
2022/10/04 02:52:25;;;;;;;9.55;3.83;;;10.90;99.90;;;;;;5134201;27;20182;-56
2022/10/04 02:55:03;;;;;;;5.72;4.03;;;10.90;99.90;;;;;;5133953;27;20238;-56
2022/10/04 02:57:31;;;;;;;10.13;4.43;;;10.90;99.90;;;;;;5133953;27;20167;-56
2022/10/04 03:00:21;;;;;;;9.48;4.35;;;10.90;99.90;;;;;;5134094;27;20165;-55
2022/10/04 03:03:09;;;;;;;7.88;4.85;;;10.90;99.90;;;;;;5133382;27;20251;-54
2022/10/04 03:05:35;;;;;;;6.05;4.50;;;10.90;99.90;;;;;;5133883;27;20187;-54
2022/10/04 03:08:04;;;;;;;9.05;4.05;;;10.90;99.90;;;;;;5133656;27;20172;-54
2022/10/04 03:10:30;;;;;;;9.35;4.30;;;10.80;99.90;;;;;;5134007;27;20168;-54
2022/10/04 03:12:56;;;;;;;10.60;5.07;;;10.80;99.90;;;;;;5133962;27;20565;-55
2022/10/04 03:15:31;;;;;;;11.35;4.30;;;10.90;99.90;;;;;;5133633;27;20203;-54
2022/10/04 03:17:58;;;;;;;11.07;5.00;;;10.80;99.90;;;;;;5132039;27;20536;-55
2022/10/04 03:20:24;;;;;;;13.52;5.25;;;10.80;99.90;;;;;;5133647;27;20160;-55
2022/10/04 03:22:54;;;;;;;9.50;4.85;;;10.70;99.90;;;;;;5133431;27;20259;-55
2022/10/04 03:25:25;;;;;;;7.30;4.43;;;10.70;99.90;;;;;;5133755;27;20171;-54
2022/10/04 03:27:51;;;;;;;9.60;4.90;;;10.70;99.90;;;;;;5133631;27;20171;-55
2022/10/04 03:30:20;;;;;;;10.15;4.95;;;10.70;99.90;;;;;;5133672;27;20163;-55
2022/10/04 03:32:47;;;;;;;10.68;4.50;;;10.70;99.90;;;;;;5133355;27;20168;-55
2022/10/04 03:35:30;;;;;;;7.93;4.50;;;10.60;99.90;;;;;;5133684;27;20655;-56
2022/10/04 03:37:57;;;;;;;11.95;5.00;;;10.60;99.90;;;;;;5133548;27;20526;-56
2022/10/04 03:40:29;;;;;;;11.40;5.18;;;10.60;99.90;;;;;;5133246;27;20163;-54
2022/10/04 03:42:56;;;;;;;8.45;4.97;;;10.60;99.90;;;;;;5133098;27;20206;-55
2022/10/04 03:45:23;;;;;;;16.02;6.18;;;10.60;99.90;;;;;;5133192;27;20164;-55
2022/10/04 03:47:50;;;;;;;8.75;4.72;;;10.60;99.90;;;;;;5133099;27;20263;-55
2022/10/04 03:50:24;;;;;;;10.43;4.82;;;10.60;99.90;;;;;;5133359;27;20168;-55
2022/10/04 03:52:53;;;;;;;10.82;5.80;;;10.60;99.90;;;;;;5133239;27;20516;-54
2022/10/04 03:55:22;;;;;;;11.70;4.70;;;10.50;99.90;;;;;;5132950;27;20649;-54
2022/10/04 03:57:48;;;;;;;9.50;4.88;;;10.50;99.90;;;;;;5133029;27;20160;-54
2022/10/04 04:00:17;;;;;;;7.43;3.88;;;10.40;99.90;;;;;;5133390;27;20209;-54
2022/10/04 04:02:55;;;;;;;5.40;4.50;;;10.40;99.90;;;;;;5133479;27;20214;-57
2022/10/04 04:05:43;;;;;;;7.60;4.45;;;10.30;99.90;;;;;;5131823;27;20155;-56
2022/10/04 04:08:27;;;;;;;10.70;5.05;;;10.30;99.90;;;;;;5132803;27;20218;-57
2022/10/04 04:10:56;;;;;;;6.03;5.05;;;10.30;99.90;;;;;;5132834;27;20164;-57
2022/10/04 04:13:45;;;;;;;10.93;4.85;;;10.30;99.90;;;;;;5131462;27;20213;-57
2022/10/04 04:16:11;;;;;;;7.05;4.72;;;10.30;99.90;;;;;;5133178;28;20187;-58
2022/10/04 04:18:42;;;;;;;9.93;4.90;;;10.30;99.90;;;;;;5132712;27;20652;-57
2022/10/04 04:21:09;;;;;;;7.18;4.75;;;10.30;99.90;;;;;;5132984;27;20160;-56
2022/10/04 04:23:38;;;;;;;12.35;4.68;;;10.30;99.90;;;;;;5132872;27;20207;-59
2022/10/04 04:26:44;;;;;;;15.02;7.15;;;10.30;99.90;;;;;;5132720;27;21126;-55
2022/10/04 04:29:10;;;;;;;10.52;5.43;;;10.30;99.90;;;;;;5133157;27;20163;-57
2022/10/04 04:31:49;;;;;;;43.78;18.70;;;10.30;99.90;;;;;;5132644;27;20671;-58
2022/10/04 04:34:28;;;;;;;25.98;9.75;;;10.30;99.90;;;;;;5132647;27;20168;-57
2022/10/04 04:37:04;;;;;;;16.50;8.85;;;10.20;99.90;;;;;;5132550;27;20167;-57
2022/10/04 04:39:36;;;;;;;16.13;9.35;;;10.20;99.90;;;;;;5132640;27;20581;-58
2022/10/04 04:42:09;;;;;;;11.70;6.30;;;10.20;99.90;;;;;;5132504;27;20191;-58
2022/10/04 04:44:52;;;;;;;27.15;12.52;;;10.20;99.90;;;;;;5131131;27;20217;-57
2022/10/04 04:47:32;;;;;;;19.73;9.60;;;10.10;99.90;;;;;;5136352;27;20633;-57
2022/10/04 04:50:03;;;;;;;22.58;12.35;;;10.20;99.90;;;;;;5136637;27;20172;-57
2022/10/04 04:52:30;;;;;;;25.98;13.10;;;10.20;99.90;;;;;;5136320;27;20156;-56
2022/10/04 04:54:56;;;;;;;20.98;10.82;;;10.20;99.90;;;;;;5136349;27;20743;-56
2022/10/04 04:57:23;;;;;;;17.17;8.13;;;10.20;99.90;;;;;;5136380;27;20629;-57
2022/10/04 04:59:54;;;;;;;11.80;5.13;;;10.10;99.90;;;;;;5136420;27;20632;-57
2022/10/04 05:02:28;;;;;;;11.27;6.68;;;10.10;99.90;;;;;;5136192;27;20692;-57
2022/10/04 05:05:15;;;;;;;25.33;15.18;;;10.10;99.90;;;;;;5136214;27;20172;-54
2022/10/04 05:07:43;;;;;;;17.60;8.60;;;10.10;99.90;;;;;;5136512;27;20167;-56
2022/10/04 05:10:33;;;;;;;12.48;5.97;;;10.10;99.90;;;;;;5136526;27;20159;-57
2022/10/04 05:13:00;;;;;;;16.73;7.07;;;10.10;99.90;;;;;;5136025;27;20641;-57
2022/10/04 05:15:38;;;;;;;13.55;8.63;;;10.10;99.90;;;;;;5135966;27;20172;-58
2022/10/04 05:18:33;;;;;;;13.80;6.70;;;10.00;99.90;;;;;;5136153;27;20264;-55
2022/10/04 05:21:07;;;;;;;9.77;6.68;;;10.00;99.90;;;;;;5127068;27;20214;-57
2022/10/04 05:23:34;;;;;;;16.75;6.63;;;10.10;99.90;;;;;;5135953;27;20200;-57
2022/10/04 05:26:02;;;;;;;11.15;6.15;;;10.10;99.90;;;;;;5135947;27;20164;-57
2022/10/04 05:28:28;;;;;;;11.63;5.70;;;10.00;99.90;;;;;;5135767;27;20255;-57
2022/10/04 05:31:22;;;;;;;13.48;6.25;;;10.10;99.90;;;;;;5135827;27;20239;-57
2022/10/04 05:33:54;;;;;;;12.43;7.50;;;10.10;99.90;;;;;;5135710;27;20172;-57
2022/10/04 05:36:50;;;;;;;11.45;5.95;;;10.10;99.90;;;;;;5135745;27;20208;-57
2022/10/04 05:39:42;;;;;;;11.07;5.38;;;10.10;99.90;;;;;;5135589;27;20164;-56
2022/10/04 05:42:25;;;;;;;7.05;5.72;;;10.00;99.90;;;;;;5134209;27;20303;-57
2022/10/04 05:44:55;;;;;;;8.88;5.95;;;10.00;99.90;;;;;;5135522;27;20516;-57
2022/10/04 05:47:26;;;;;;;7.60;5.13;;;10.00;99.90;;;;;;5135599;27;20168;-57
2022/10/04 05:49:56;;;;;;;13.23;5.50;;;10.00;99.90;;;;;;5135660;27;20168;-56
2022/10/04 05:52:35;;;;;;;14.82;6.50;;;10.00;99.90;;;;;;5134024;27;20171;-56
2022/10/04 05:55:25;;;;;;;9.75;6.20;;;10.00;99.90;;;;;;5135198;27;20218;-56
2022/10/04 05:58:37;;;;;;;8.30;6.10;;;10.00;99.90;;;;;;5133964;27;20183;-58
2022/10/04 06:01:21;;;;;;;15.38;6.13;;;10.00;99.90;;;;;;5096639;27;20176;-56
2022/10/04 06:04:15;;;;;;;12.27;7.50;;;10.00;99.90;;;;;;5135101;27;20274;-57
2022/10/04 06:07:20;;;;;;;10.32;7.00;;;10.00;99.90;;;;;;5135406;27;20164;-57
2022/10/04 06:09:49;;;;;;;11.02;5.80;;;10.00;99.90;;;;;;5118760;27;20663;-56
2022/10/04 06:12:29;;;;;;;11.27;5.50;;;10.10;99.90;;;;;;5134897;27;20734;-57
2022/10/04 06:15:15;;;;;;;9.88;5.45;;;10.10;99.90;;;;;;5134840;27;20171;-56
2022/10/04 06:17:55;;;;;;;10.65;6.18;;;10.00;99.90;;;;;;5135257;27;20243;-56
2022/10/04 06:20:53;;;;;;;11.93;5.65;;;10.10;99.90;;;;;;5134772;27;20164;-56
2022/10/04 06:23:21;;;;;;;13.60;6.57;;;10.10;99.90;;;;;;5133054;27;20216;-56
2022/10/04 06:25:52;;;;;;;19.23;7.45;;;10.20;99.90;;;;;;5134928;27;20558;-56
2022/10/04 06:28:24;;;;;;;15.32;7.15;;;10.20;99.90;;;;;;5134661;27;20563;-56
2022/10/04 06:31:20;;;;;;;10.73;6.68;;;10.30;99.90;;;;;;5134569;27;20213;-56
2022/10/04 06:33:46;;;;;;;17.13;7.90;;;10.30;99.90;;;;;;5134722;27;20179;-56
2022/10/04 06:36:33;;;;;;;13.88;7.25;;;10.40;99.90;;;;;;5134797;27;20516;-55
2022/10/04 06:39:20;;;;;;;16.48;6.72;;;10.40;99.90;;;;;;5133731;27;20528;-56
2022/10/04 06:42:16;;;;;;;10.20;5.72;;;10.40;99.90;;;;;;5134244;27;20183;-56
2022/10/04 06:45:04;;;;;;;12.40;7.03;;;10.40;99.90;;;;;;5134744;27;20320;-54
2022/10/04 06:47:47;;;;;;;12.32;6.25;;;10.50;99.90;;;;;;5134503;27;20175;-56
2022/10/04 06:50:32;;;;;;;12.35;6.18;;;10.60;99.90;;;;;;5133225;27;20168;-54
2022/10/04 06:53:16;;;;;;;19.70;6.18;;;10.70;99.90;;;;;;5134340;27;20241;-54
2022/10/04 06:56:03;;;;;;;11.52;6.78;;;10.70;99.90;;;;;;5134331;27;20714;-56
2022/10/04 06:58:46;;;;;;;17.05;7.15;;;10.80;99.90;;;;;;5134258;27;20172;-56
2022/10/04 07:01:25;;;;;;;12.05;7.13;;;10.80;99.90;;;;;;5133005;27;20175;-56
2022/10/04 07:03:59;;;;;;;12.52;6.20;;;10.90;99.90;;;;;;5133924;27;20179;-56
2022/10/04 07:06:33;;;;;;;14.43;8.35;;;11.00;99.90;;;;;;5133839;27;20170;-56
2022/10/04 07:09:02;;;;;;;16.52;7.57;;;11.00;99.90;;;;;;5133464;27;20172;-57
2022/10/04 07:11:58;;;;;;;15.55;8.98;;;11.20;99.90;;;;;;5133672;27;20564;-56
2022/10/04 07:14:30;;;;;;;12.23;7.30;;;11.40;99.90;;;;;;5133625;27;20160;-56
2022/10/04 07:17:04;;;;;;;13.15;7.00;;;11.50;99.90;;;;;;5133757;27;20166;-55
2022/10/04 07:19:32;;;;;;;11.65;6.95;;;11.40;99.90;;;;;;5133576;27;20164;-56
2022/10/04 07:22:07;;;;;;;12.05;7.15;;;11.50;99.90;;;;;;5133519;27;20204;-54
2022/10/04 07:24:32;;;;;;;9.50;7.35;;;11.60;99.90;;;;;;5133509;27;20155;-56
2022/10/04 07:27:01;;;;;;;13.48;7.03;;;11.60;99.90;;;;;;5133479;27;20183;-56
2022/10/04 07:29:32;;;;;;;12.80;7.20;;;11.60;99.90;;;;;;5133507;27;20629;-54
2022/10/04 07:32:08;;;;;;;11.98;7.07;;;11.70;99.90;;;;;;5133369;27;20168;-56
2022/10/04 07:34:46;;;;;;;15.77;7.22;;;11.80;99.90;;;;;;5133286;27;20697;-54
2022/10/04 07:37:13;;;;;;;12.57;6.78;;;11.80;99.90;;;;;;5133619;27;20167;-54
2022/10/04 07:39:56;;;;;;;11.18;6.57;;;11.80;99.90;;;;;;5133839;27;20168;-53
2022/10/04 07:42:51;;;;;;;14.35;7.43;;;11.80;99.90;;;;;;5133214;27;20200;-53
2022/10/04 07:45:32;;;;;;;13.40;7.88;;;11.80;99.90;;;;;;5133145;27;20243;-54
2022/10/04 07:48:15;;;;;;;22.00;7.93;;;11.80;99.90;;;;;;5133427;27;20171;-54
2022/10/04 07:51:08;;;;;;;17.13;8.57;;;11.80;99.90;;;;;;5131652;27;20620;-55
2022/10/04 07:53:59;;;;;;;11.93;7.45;;;11.70;99.90;;;;;;5131738;27;20172;-50
2022/10/04 07:56:37;;;;;;;19.13;7.72;;;11.80;99.90;;;;;;5131581;27;20208;-58
2022/10/04 07:59:31;;;;;;;20.85;7.25;;;11.80;99.90;;;;;;5132098;27;20160;-51
2022/10/04 08:02:13;;;;;;;14.15;7.53;;;11.80;99.90;;;;;;5131618;27;20680;-50
2022/10/04 08:04:50;;;;;;;11.63;8.35;;;11.80;99.90;;;;;;5130502;27;20186;-55
2022/10/04 08:07:21;;;;;;;11.63;7.00;;;12.00;99.90;;;;;;5130407;27;20164;-55
2022/10/04 08:10:12;;;;;;;14.00;7.32;;;12.10;99.90;;;;;;5131823;27;20557;-56
2022/10/04 08:13:22;;;;;;;12.55;7.65;;;12.20;99.90;;;;;;5131573;27;20182;-56
2022/10/04 08:15:50;;;;;;;19.25;8.18;;;12.30;99.90;;;;;;5127007;27;20248;-55
2022/10/04 08:18:42;;;;;;;13.93;7.35;;;12.50;99.90;;;;;;5131555;27;20187;-52
2022/10/04 08:21:14;;;;;;;15.90;6.93;;;12.60;99.90;;;;;;5130806;27;20168;-52
2022/10/04 08:23:55;;;;;;;14.88;6.55;;;12.80;99.90;;;;;;5131822;27;20239;-53
2022/10/04 08:26:47;;;;;;;15.65;6.80;;;12.90;99.90;;;;;;5131430;27;20258;-52
2022/10/04 08:29:42;;;;;;;12.68;6.93;;;13.00;99.90;;;;;;5131813;27;20312;-53
2022/10/04 08:32:22;;;;;;;14.07;7.70;;;13.10;99.90;;;;;;5130483;28;20160;-60
2022/10/04 08:35:10;;;;;;;13.52;6.90;;;13.20;99.90;;;;;;5131423;27;20288;-53
2022/10/04 08:37:56;;;;;;;12.95;6.57;;;13.30;99.90;;;;;;5129952;27;20192;-49
2022/10/04 08:40:49;;;;;;;16.13;6.97;;;13.30;99.90;;;;;;5131064;27;20247;-58
2022/10/04 08:43:41;;;;;;;11.27;6.30;;;13.30;99.90;;;;;;5131159;27;20538;-49
2022/10/04 08:46:37;;;;;;;10.85;6.47;;;13.40;99.90;;;;;;5131254;27;20156;-53
2022/10/04 08:49:03;;;;;;;11.13;6.55;;;13.50;99.90;;;;;;5130141;28;21165;-52
2022/10/04 08:51:50;;;;;;;11.07;6.60;;;13.70;99.90;;;;;;5131526;27;20177;-51
2022/10/04 08:54:39;;;;;;;12.23;6.90;;;13.90;99.90;;;;;;5131037;27;20172;-50
2022/10/04 08:57:29;;;;;;;10.15;6.05;;;13.90;99.90;;;;;;5131298;27;20168;-55
2022/10/04 09:00:14;;;;;;;8.88;6.28;;;14.10;99.90;;;;;;5131099;27;20164;-55
2022/10/04 09:03:03;;;;;;;14.38;7.50;;;14.30;99.90;;;;;;5131312;27;20218;-55
2022/10/04 09:05:52;;;;;;;13.75;6.90;;;14.50;99.90;;;;;;5131360;27;20191;-55
2022/10/04 09:08:36;;;;;;;8.68;5.78;;;14.50;99.90;;;;;;5130976;27;20577;-55
2022/10/04 09:11:21;;;;;;;12.35;6.38;;;14.50;99.90;;;;;;5131063;27;20273;-56
2022/10/04 09:14:17;;;;;;;12.18;6.45;;;14.70;99.90;;;;;;5131229;27;20172;-55
2022/10/04 09:16:51;;;;;;;75.85;44.33;;;14.80;99.90;;;;;;5131067;27;20533;-56
2022/10/04 09:19:21;;;;;;;36.08;19.48;;;14.90;99.90;;;;;;5129780;28;20168;-55
2022/10/04 09:21:46;;;;;;;95.63;45.35;;;14.90;99.90;;;;;;5131125;27;20171;-55
2022/10/04 09:24:58;;;;;;;15.82;9.77;;;15.00;99.90;;;;;;5131255;27;20529;-55
2022/10/04 09:27:33;;;;;;;52.55;25.83;;;15.20;99.90;;;;;;5130845;27;20168;-55
2022/10/04 09:30:13;;;;;;;15.88;7.68;;;15.20;99.90;;;;;;5131067;27;20266;-55
2022/10/04 09:33:03;;;;;;;12.10;6.72;;;15.40;99.90;;;;;;5134371;27;20199;-55
2022/10/04 09:35:49;;;;;;;10.88;6.50;;;15.50;99.90;;;;;;5134726;27;20214;-55
2022/10/04 09:38:29;;;;;;;17.58;9.75;;;15.70;99.90;;;;;;5134358;27;20414;-55
2022/10/04 09:41:52;;;;;;;11.27;5.85;;;15.60;99.90;;;;;;5134261;27;20205;-55
2022/10/04 09:44:32;;;;;;;13.65;5.63;;;15.80;99.90;;;;;;5090961;28;20185;-55
2022/10/04 09:46:58;;;;;;;16.83;8.73;;;15.80;99.90;;;;;;5091214;28;20631;-57
2022/10/04 09:49:51;;;;;;;18.40;7.85;;;16.00;99.90;;;;;;5115586;27;20179;-55
2022/10/04 09:53:00;;;;;;;15.00;6.55;;;16.20;99.90;;;;;;5134088;27;20168;-55
2022/10/04 09:55:44;;;;;;;36.17;14.70;;;16.20;99.90;;;;;;5124465;27;20219;-55
2022/10/04 09:58:36;;;;;;;14.40;8.00;;;16.20;99.90;;;;;;5134387;27;20510;-55
2022/10/04 10:01:15;;;;;;;24.38;12.32;;;16.30;99.90;;;;;;5134334;27;20647;-55
2022/10/04 10:03:49;;;;;;;49.40;23.05;;;16.30;99.90;;;;;;5134416;27;20207;-55
2022/10/04 10:06:52;;;;;;;10.10;6.65;;;16.40;99.90;;;;;;5133974;27;20177;-55
2022/10/04 10:15:59;;;;;;;17.20;9.18;;;16.70;99.90;;;;;;5133682;27;20171;-55
2022/10/04 10:18:28;;;;;;;16.00;8.05;;;16.80;99.90;;;;;;5133646;27;20174;-55
2022/10/04 10:21:05;;;;;;;12.88;8.25;;;16.90;99.90;;;;;;5133700;27;20160;-55
2022/10/04 10:24:06;;;;;;;11.98;6.05;;;16.80;99.90;;;;;;5132188;27;20203;-55
2022/10/04 10:26:50;;;;;;;16.08;7.90;;;16.80;99.90;;;;;;5133549;27;20164;-55
2022/10/04 10:29:30;;;;;;;10.77;6.55;;;17.00;99.90;;;;;;5133318;27;20236;-55
2022/10/04 10:32:03;;;;;;;9.73;5.78;;;17.00;99.90;;;;;;5133306;27;20640;-55
2022/10/04 10:34:43;;;;;;;12.77;8.13;;;17.20;99.90;;;;;;5133538;27;20233;-55
2022/10/04 10:37:17;;;;;;;10.52;6.10;;;17.30;99.90;;;;;;5133634;27;20959;-55
2022/10/04 10:40:20;;;;;;;14.25;9.15;;;17.40;99.90;;;;;;5133475;27;20225;-55
2022/10/04 10:43:25;;;;;;;18.25;12.13;;;17.40;99.90;;;;;;5132407;27;20274;-55
2022/10/04 10:46:15;;;;;;;9.52;5.45;;;17.40;99.90;;;;;;5133107;27;20156;-55
2022/10/04 10:48:56;;;;;;;43.53;28.88;;;17.30;99.90;;;;;;5133382;27;20162;-55
2022/10/04 10:51:24;;;;;;;31.92;20.65;;;17.60;99.90;;;;;;5132977;27;20172;-55
2022/10/04 10:54:40;;;;;;;10.98;7.75;;;17.70;99.90;;;;;;5131524;27;20172;-55
2022/10/04 10:57:45;;;;;;;8.23;4.82;;;17.60;99.90;;;;;;5133142;27;20218;-55
2022/10/04 11:00:21;;;;;;;10.70;5.57;;;17.90;99.90;;;;;;5133000;27;20159;-55
2022/10/04 11:03:31;;;;;;;7.18;4.85;;;17.90;99.90;;;;;;5132625;27;20719;-55
2022/10/04 11:06:35;;;;;;;9.23;5.55;;;17.70;99.90;;;;;;5132776;27;20164;-55
2022/10/04 11:09:28;;;;;;;11.63;4.90;;;17.90;99.90;;;;;;5132598;27;20188;-55
2022/10/04 11:12:17;;;;;;;9.70;5.28;;;17.70;99.90;;;;;;5132606;27;20171;-55
2022/10/04 11:15:05;;;;;;;7.65;5.22;;;17.80;99.90;;;;;;5132505;27;20520;-55
2022/10/04 11:18:16;;;;;;;10.63;5.55;;;17.90;99.90;;;;;;5132715;27;20259;-54
2022/10/04 11:21:12;;;;;;;8.98;5.05;;;18.10;99.90;;;;;;5132741;27;20527;-55
2022/10/04 11:24:03;;;;;;;9.85;5.78;;;18.00;99.90;;;;;;5132832;27;20211;-55
2022/10/04 11:26:31;;;;;;;10.02;5.80;;;18.20;99.90;;;;;;5132166;27;20164;-55
2022/10/04 11:29:22;;;;;;;9.35;6.07;;;18.20;99.90;;;;;;5130784;27;20175;-55
2022/10/04 11:31:59;;;;;;;9.02;4.80;;;18.40;99.90;;;;;;5132245;27;20160;-55
2022/10/04 11:35:10;;;;;;;7.57;3.78;;;18.50;99.90;;;;;;5132206;27;20163;-55
2022/10/04 11:37:45;;;;;;;4.80;3.47;;;18.40;99.90;;;;;;5132129;27;20172;-55
2022/10/04 11:40:22;;;;;;;7.82;4.05;;;18.30;99.90;;;;;;5132527;27;20156;-55
2022/10/04 11:42:51;;;;;;;9.13;3.58;;;18.40;99.90;;;;;;5130684;27;20303;-55
2022/10/04 11:45:32;;;;;;;5.78;3.20;;;18.40;99.90;;;;;;5131945;27;20156;-55
2022/10/04 11:48:10;;;;;;;6.30;3.47;;;18.70;99.90;;;;;;5132439;27;20207;-55
2022/10/04 11:50:50;;;;;;;7.32;3.60;;;18.70;99.90;;;;;;5132306;27;20168;-55
2022/10/04 11:53:43;;;;;;;14.18;4.05;;;18.60;99.90;;;;;;5132059;27;20172;-55
2022/10/04 11:56:40;;;;;;;12.63;6.05;;;18.20;99.90;;;;;;5131262;27;20230;-55
2022/10/04 11:59:28;;;;;;;13.48;7.28;;;18.20;99.90;;;;;;5125960;27;20184;-54
2022/10/04 12:02:15;;;;;;;10.50;3.50;;;18.60;99.90;;;;;;5131759;27;20167;-55
2022/10/04 12:05:05;;;;;;;10.50;5.75;;;19.00;99.90;;;;;;5130968;27;20180;-55
2022/10/04 12:07:43;;;;;;;8.38;3.25;;;19.00;99.90;;;;;;5131897;27;20625;-54
2022/10/04 12:10:15;;;;;;;10.45;5.32;;;18.90;99.90;;;;;;5132070;27;20222;-54
2022/10/04 12:13:00;;;;;;;6.80;3.85;;;19.00;99.90;;;;;;5131907;27;20640;-55
2022/10/04 12:16:03;;;;;;;6.95;3.17;;;19.20;99.90;;;;;;5131456;27;20518;-55
2022/10/04 12:19:08;;;;;;;4.10;2.97;;;19.10;99.90;;;;;;5131498;27;20906;-55
2022/10/04 12:21:49;;;;;;;17.40;7.45;;;18.90;99.90;;;;;;5131464;27;20291;-55
2022/10/04 12:24:39;;;;;;;11.48;3.88;;;19.00;99.90;;;;;;5131816;27;20191;-55
2022/10/04 12:27:33;;;;;;;8.80;3.58;;;19.10;99.90;;;;;;5131445;27;20164;-55
2022/10/04 12:30:10;;;;;;;5.97;3.58;;;19.10;99.90;;;;;;5131369;27;20168;-55
2022/10/04 12:32:46;;;;;;;8.35;3.40;;;19.30;99.90;;;;;;5131389;27;20163;-55
2022/10/04 12:35:38;;;;;;;8.77;5.40;;;19.30;99.90;;;;;;5131120;27;20164;-55
2022/10/04 12:38:05;;;;;;;13.02;7.80;;;19.30;99.90;;;;;;5131210;27;20251;-54
2022/10/04 12:40:48;;;;;;;14.35;7.88;;;19.50;99.90;;;;;;5131218;27;20164;-55
2022/10/04 12:43:22;;;;;;;9.13;4.80;;;19.50;99.90;;;;;;5112630;28;20620;-55
2022/10/04 12:46:00;;;;;;;9.90;3.58;;;19.60;99.90;;;;;;5131003;27;20163;-55
2022/10/04 12:48:57;;;;;;;9.18;3.13;;;19.60;99.90;;;;;;5131178;27;20164;-55
2022/10/04 12:51:59;;;;;;;7.53;3.30;;;19.60;99.90;;;;;;5131789;27;20799;-55
2022/10/04 12:54:43;;;;;;;5.38;3.13;;;19.60;99.90;;;;;;5131338;27;20598;-55
2022/10/04 12:57:44;;;;;;;11.18;7.20;;;19.60;99.90;;;;;;5131222;27;20164;-55
2022/10/04 13:00:24;;;;;;;8.45;5.18;;;19.60;99.90;;;;;;5130077;27;20251;-55
2022/10/04 13:03:08;;;;;;;35.40;12.02;;;19.70;99.90;;;;;;5130728;27;20196;-57
2022/10/04 13:05:46;;;;;;;8.27;3.30;;;19.70;99.90;;;;;;5131018;27;20186;-51
2022/10/04 13:08:50;;;;;;;5.50;3.17;;;19.70;99.90;;;;;;5134810;27;20212;-54
2022/10/04 13:11:28;;;;;;;6.90;2.90;;;19.70;99.90;;;;;;5112920;27;20299;-52
2022/10/04 13:14:13;;;;;;;5.93;2.90;;;19.70;99.90;;;;;;5134319;27;20167;-52
2022/10/04 13:16:57;;;;;;;9.18;2.80;;;19.70;99.90;;;;;;5136665;27;20160;-52
2022/10/04 13:19:33;;;;;;;5.65;2.80;;;19.70;99.90;;;;;;5136289;27;20168;-52
2022/10/04 13:22:04;;;;;;;7.90;3.22;;;19.90;99.90;;;;;;5134549;27;20265;-53
2022/10/04 13:24:57;;;;;;;6.55;2.72;;;20.00;99.90;;;;;;5136190;27;20160;-52
2022/10/04 13:27:39;;;;;;;5.22;2.40;;;20.10;99.90;;;;;;5136127;27;20544;-52
2022/10/04 13:30:06;;;;;;;7.18;3.13;;;20.00;99.90;;;;;;5135706;27;20160;-53
2022/10/04 13:32:42;;;;;;;4.93;2.70;;;20.00;99.90;;;;;;5135768;27;20164;-52
2022/10/04 13:35:20;;;;;;;6.68;3.10;;;19.80;99.90;;;;;;5136104;27;20254;-52
2022/10/04 13:38:01;;;;;;;6.80;2.90;;;19.80;99.90;;;;;;5135677;27;20155;-52
2022/10/04 13:40:29;;;;;;;16.67;6.03;;;19.90;99.90;;;;;;5135607;27;20160;-52
2022/10/04 13:42:54;;;;;;;9.25;3.45;;;20.00;99.90;;;;;;5135769;27;20214;-52
2022/10/04 13:45:33;;;;;;;10.00;3.45;;;20.20;99.90;;;;;;5135461;27;20164;-52
2022/10/04 13:48:26;;;;;;;6.75;3.00;;;20.10;99.90;;;;;;5135423;27;20171;-52
2022/10/04 13:51:10;;;;;;;8.27;3.25;;;20.20;99.90;;;;;;5133972;27;20541;-52
2022/10/04 13:56:47;;;;;;;10.15;3.30;;;20.10;99.90;;;;;;5135141;27;20723;-52